Terminal Aerodrome Forecast
Issued by NWS Denver/Boulder, CO

Home | Current Version | Previous Version | Text Only | Print | Product List | Glossary On
Versions: 1 2 3 4 5 6 7 8 9 10 11 12 13 14 15 16 17 18 19 20 21 22 23 24 25 26 27 28 29 30 31 32 33 34 35 36 37 38 39 40 41 42 43 44 45 46 47 48 49 50
538
FTUS45 KBOU 280152 AAB
TAFDEN
TAF AMD
KDEN 280152Z 2802/2906 VRB05KT P6SM VCSH BKN060 BKN090
     FM280230 11010KT P6SM VCSH BKN060 BKN090
     FM280400 09008KT P6SM VCSH SCT035 BKN050 BKN100
      TEMPO 2807/2809 BKN030
     FM280900 34006KT 3SM BR SCT008 OVC015
     FM281100 29006KT 1SM BR SCT004 OVC008
      TEMPO 2811/2815 1/2SM FG VV004
     FM281500 34008KT P6SM VCSH SCT008 OVC015
     FM282000 01008KT P6SM VCSH SCT008 OVC012
      TEMPO 2820/2824 03012G18KT 3SM -SHRA OVC008
     FM290000 01015KT 3/4SM RA BR SCT004 OVC008=

USA.gov is the U.S. government's official web portal to all federal, state and local government web resources and services.